createdAt,value
2024-01-10T00:02:23.120Z,48.13
2024-01-10T00:04:51.469Z,43.29
2024-01-10T00:07:19.404Z,39.57
2024-01-10T00:09:47.508Z,38.01
2024-01-10T00:12:15.248Z,38.27
2024-01-10T00:14:43.138Z,36.26
2024-01-10T00:17:11.065Z,34.92
2024-01-10T00:19:39.018Z,34.42
2024-01-10T00:22:06.800Z,33.65
2024-01-10T00:24:34.524Z,33.22
2024-01-10T00:27:02.265Z,32.71
2024-01-10T00:29:30.006Z,30.39
2024-01-10T00:32:00.703Z,31.17
2024-01-10T00:34:28.858Z,33.07
2024-01-10T00:36:56.495Z,35.04
2024-01-10T00:39:24.234Z,36.66
2024-01-10T00:41:51.999Z,38.05
2024-01-10T00:44:19.923Z,39.35
2024-01-10T00:46:47.794Z,40.30
2024-01-10T00:49:15.663Z,48.13
2024-01-10T00:51:43.438Z,50.31
2024-01-10T00:54:11.139Z,44.26
2024-01-10T00:56:39.206Z,39.32
2024-01-10T00:59:06.958Z,36.78
2024-01-10T01:01:34.695Z,34.63
2024-01-10T01:04:02.583Z,33.57
2024-01-10T01:06:30.329Z,33.22
2024-01-10T01:08:59.770Z,32.80
2024-01-10T01:11:27.589Z,31.11
2024-01-10T01:13:55.595Z,29.42
2024-01-10T01:16:23.332Z,29.65
2024-01-10T01:18:51.133Z,31.36
2024-01-10T01:21:18.909Z,33.70
2024-01-10T01:23:46.666Z,35.05
2024-01-10T01:26:15.589Z,36.25
2024-01-10T01:28:43.500Z,41.54
2024-01-10T01:31:11.347Z,47.97
2024-01-10T01:33:40.513Z,43.55
2024-01-10T01:36:08.731Z,39.22
2024-01-10T01:38:36.841Z,36.22
2024-01-10T01:41:07.129Z,34.95
2024-01-10T01:43:36.325Z,34.11
2024-01-10T01:46:04.780Z,34.07
2024-01-10T01:48:33.310Z,33.32
2024-01-10T01:51:05.589Z,33.03
2024-01-10T01:53:35.697Z,32.89
2024-01-10T01:56:07.307Z,32.84
2024-01-10T01:58:37.518Z,31.83
2024-01-10T02:01:06.776Z,31.61
2024-01-10T02:03:35.890Z,30.67
2024-01-10T02:06:04.987Z,31.69
2024-01-10T02:08:34.779Z,31.45
2024-01-10T02:11:03.979Z,31.01
2024-01-10T02:13:34.049Z,30.70
2024-01-10T02:16:02.456Z,30.30
2024-01-10T02:18:30.289Z,30.60
2024-01-10T02:20:59.147Z,30.54
2024-01-10T02:23:27.137Z,30.53
2024-01-10T02:25:55.079Z,30.48
2024-01-10T02:28:24.471Z,30.70
2024-01-10T02:30:54.106Z,30.91
2024-01-10T02:33:22.211Z,32.63
2024-01-10T02:35:50.110Z,32.59
2024-01-10T02:38:19.249Z,31.16
2024-01-10T02:40:47.034Z,30.16
2024-01-10T02:43:14.833Z,30.14
2024-01-10T02:45:43.071Z,30.16
2024-01-10T02:48:10.906Z,30.31
2024-01-10T02:50:39.906Z,31.07
2024-01-10T02:53:07.718Z,30.73
2024-01-10T02:55:35.497Z,27.79
2024-01-10T02:58:03.291Z,26.82
2024-01-10T03:00:30.995Z,28.11
2024-01-10T03:02:58.674Z,30.22
2024-01-10T03:05:26.596Z,31.24
2024-01-10T03:07:54.429Z,33.93
2024-01-10T03:10:22.282Z,34.62
2024-01-10T03:12:50.026Z,41.96
2024-01-10T03:15:17.789Z,44.42
2024-01-10T03:17:45.588Z,40.42
2024-01-10T03:20:13.483Z,36.11
2024-01-10T03:22:41.334Z,34.13
2024-01-10T03:25:09.257Z,33.46
2024-01-10T03:27:36.938Z,32.48
2024-01-10T03:30:05.809Z,31.90
2024-01-10T03:32:33.684Z,31.50
2024-01-10T03:35:01.667Z,30.81
2024-01-10T03:37:29.510Z,30.62
2024-01-10T03:39:57.214Z,30.77
2024-01-10T03:42:24.925Z,31.17
2024-01-10T03:44:52.681Z,30.91
2024-01-10T03:47:20.489Z,30.55
2024-01-10T03:49:49.002Z,30.78
2024-01-10T03:52:16.854Z,30.07
2024-01-10T03:54:44.597Z,30.05
2024-01-10T03:57:12.282Z,30.43
2024-01-10T03:59:40.000Z,30.27
2024-01-10T04:02:07.798Z,30.02
2024-01-10T04:04:39.197Z,30.04
2024-01-10T04:07:07.468Z,31.10
2024-01-10T04:09:35.294Z,29.84
2024-01-10T04:12:03.152Z,28.87
2024-01-10T04:14:31.013Z,26.18
2024-01-10T04:16:58.911Z,27.16
2024-01-10T04:19:26.678Z,28.83
2024-01-10T04:21:54.717Z,29.78
2024-01-10T04:24:22.462Z,30.56
2024-01-10T04:26:50.218Z,31.82
2024-01-10T04:29:17.945Z,33.50
2024-01-10T04:31:45.746Z,42.80
2024-01-10T04:34:14.387Z,42.92
2024-01-10T04:36:42.152Z,37.64
2024-01-10T04:39:10.339Z,34.45
2024-01-10T04:41:38.143Z,32.96
2024-01-10T04:44:05.935Z,32.06
2024-01-10T04:46:34.897Z,31.48
2024-01-10T04:49:02.708Z,30.72
2024-01-10T04:51:30.777Z,29.80
2024-01-10T04:53:58.548Z,29.19
2024-01-10T04:56:27.095Z,29.15
2024-01-10T04:58:55.068Z,29.65
2024-01-10T05:01:23.085Z,28.34
2024-01-10T05:03:50.965Z,26.86
2024-01-10T05:06:18.737Z,28.28
2024-01-10T05:08:46.450Z,29.86
2024-01-10T05:11:16.301Z,31.28
2024-01-10T05:13:44.869Z,32.71
2024-01-10T05:16:12.610Z,33.70
2024-01-10T05:18:40.325Z,35.70
2024-01-10T05:21:08.499Z,43.74
2024-01-10T05:23:36.690Z,42.73
2024-01-10T05:26:05.723Z,40.41
2024-01-10T05:28:33.507Z,37.83
2024-01-10T05:31:01.748Z,35.76
2024-01-10T05:33:29.723Z,34.91
2024-01-10T05:35:57.525Z,33.94
2024-01-10T05:38:25.367Z,33.95
2024-01-10T05:40:53.514Z,33.06
2024-01-10T05:43:22.902Z,32.99
2024-01-10T05:45:50.772Z,32.55
2024-01-10T05:48:18.842Z,32.36
2024-01-10T05:50:46.690Z,32.40
2024-01-10T05:53:18.178Z,32.96
2024-01-10T05:55:46.114Z,31.93
2024-01-10T05:58:13.865Z,32.20
2024-01-10T06:00:41.680Z,31.84
2024-01-10T06:03:10.454Z,31.05
2024-01-10T06:05:38.329Z,30.25
2024-01-10T06:08:06.885Z,30.21
2024-01-10T06:10:37.755Z,29.31
2024-01-10T06:13:06.182Z,29.70
2024-01-10T06:15:33.898Z,30.61
2024-01-10T06:18:01.765Z,30.73
2024-01-10T06:20:29.922Z,30.51
2024-01-10T06:22:57.838Z,30.59
2024-01-10T06:25:27.432Z,30.84
2024-01-10T06:27:55.540Z,31.98
2024-01-10T06:30:23.375Z,31.31
2024-01-10T06:32:51.159Z,29.67
2024-01-10T06:35:19.113Z,29.70
2024-01-10T06:37:47.081Z,30.36
2024-01-10T06:40:15.068Z,30.73
2024-01-10T06:42:42.749Z,31.03
2024-01-10T06:45:12.884Z,31.91
2024-01-10T06:47:42.071Z,32.09
2024-01-10T06:50:11.244Z,32.38
2024-01-10T06:52:39.114Z,33.53
2024-01-10T06:55:09.225Z,32.60
2024-01-10T06:57:37.204Z,32.23
2024-01-10T07:00:08.300Z,32.33
2024-01-10T07:02:37.164Z,31.80
2024-01-10T07:05:10.186Z,32.15
2024-01-10T07:07:38.832Z,32.85
2024-01-10T07:10:07.373Z,31.71
2024-01-10T07:12:35.811Z,32.03
2024-01-10T07:15:04.413Z,31.48
2024-01-10T07:17:32.580Z,30.20
2024-01-10T07:20:00.720Z,30.41
2024-01-10T07:22:29.001Z,27.79
2024-01-10T07:24:58.164Z,27.10
2024-01-10T07:27:26.136Z,28.34
2024-01-10T07:29:53.861Z,30.03
2024-01-10T07:32:21.927Z,31.80
2024-01-10T07:34:49.913Z,34.30
2024-01-10T07:37:21.826Z,36.31
2024-01-10T07:39:51.685Z,37.81
2024-01-10T07:42:19.609Z,44.22
2024-01-10T07:44:49.070Z,45.01
2024-01-10T07:47:17.645Z,41.32
2024-01-10T07:49:45.799Z,37.54
2024-01-10T07:52:13.767Z,35.31
2024-01-10T07:54:41.472Z,33.62
2024-01-10T07:57:09.622Z,33.17
2024-01-10T07:59:37.512Z,32.89
2024-01-10T08:02:05.436Z,32.75
2024-01-10T08:04:33.476Z,32.54
2024-01-10T08:07:02.171Z,32.71
2024-01-10T08:09:30.207Z,32.95
2024-01-10T08:11:59.876Z,32.89
2024-01-10T08:14:28.024Z,33.15
2024-01-10T08:16:59.137Z,33.44
2024-01-10T08:19:28.035Z,33.72
2024-01-10T08:21:55.952Z,33.79
2024-01-10T08:24:24.148Z,33.49
2024-01-10T08:26:53.150Z,33.48
2024-01-10T08:29:22.540Z,33.74
2024-01-10T08:31:50.575Z,32.96
2024-01-10T08:34:19.521Z,32.86
2024-01-10T08:36:48.505Z,31.94
2024-01-10T08:39:16.492Z,31.43
2024-01-10T08:41:45.548Z,31.38
2024-01-10T08:44:13.343Z,30.56
2024-01-10T08:46:41.268Z,30.40
2024-01-10T08:49:09.706Z,29.16
2024-01-10T08:51:37.584Z,28.76
2024-01-10T08:54:05.971Z,29.01
2024-01-10T08:56:33.722Z,30.04
2024-01-10T08:59:03.853Z,32.11
2024-01-10T09:01:32.679Z,31.96
2024-01-10T09:04:00.824Z,33.37
2024-01-10T09:06:28.742Z,35.64
2024-01-10T09:08:57.492Z,34.50
2024-01-10T09:11:25.821Z,35.90
2024-01-10T09:13:53.717Z,38.61
2024-01-10T09:16:21.548Z,38.32
2024-01-10T09:18:51.081Z,39.80
2024-01-10T09:21:21.323Z,37.50
2024-01-10T09:23:52.171Z,37.17
2024-01-10T09:26:20.875Z,36.36
2024-01-10T09:28:49.058Z,38.61
2024-01-10T09:31:16.960Z,37.33
2024-01-10T09:33:44.976Z,41.91
2024-01-10T09:36:12.884Z,44.90
2024-01-10T09:38:40.781Z,43.70
2024-01-10T09:41:09.096Z,43.68
2024-01-10T09:43:38.060Z,44.35
2024-01-10T09:46:08.188Z,44.76
2024-01-10T09:48:36.360Z,44.01
2024-01-10T09:51:05.659Z,44.71
2024-01-10T09:53:37.871Z,44.75
2024-01-10T09:56:06.351Z,44.78
2024-01-10T09:58:40.407Z,46.24
2024-01-10T10:01:08.646Z,46.04
2024-01-10T10:03:42.292Z,45.34
2024-01-10T10:06:12.686Z,45.45
2024-01-10T10:08:43.318Z,45.47
2024-01-10T10:11:17.871Z,46.55
2024-01-10T10:13:46.587Z,46.99
2024-01-10T10:16:14.730Z,46.70
2024-01-10T10:18:43.871Z,47.69
2024-01-10T10:21:14.306Z,48.00
2024-01-10T10:23:44.305Z,48.34
2024-01-10T10:26:12.376Z,49.07
2024-01-10T10:28:41.594Z,48.70
2024-01-10T10:31:09.642Z,48.10
2024-01-10T10:33:38.026Z,47.91
2024-01-10T10:36:07.318Z,47.76
2024-01-10T10:38:36.102Z,46.37
2024-01-10T10:41:14.261Z,46.33
2024-01-10T10:43:43.386Z,45.39
2024-01-10T10:46:16.104Z,45.47
2024-01-10T10:48:44.856Z,45.49
2024-01-10T10:51:19.195Z,45.89
2024-01-10T10:53:49.476Z,44.81
2024-01-10T10:56:18.351Z,42.83
2024-01-10T10:58:47.085Z,42.00
2024-01-10T11:01:16.754Z,42.08
2024-01-10T11:03:46.047Z,41.05
2024-01-10T11:06:14.262Z,41.70
2024-01-10T11:08:54.293Z,41.35
2024-01-10T11:11:53.392Z,40.70
2024-01-10T11:14:43.366Z,40.75
2024-01-10T11:17:19.742Z,41.00
2024-01-10T11:20:15.713Z,40.68
2024-01-10T11:23:01.747Z,42.12
2024-01-10T11:25:33.704Z,43.42
2024-01-10T11:28:05.253Z,43.75
2024-01-10T11:30:39.214Z,43.84
2024-01-10T11:33:46.309Z,42.16
2024-01-10T11:36:15.818Z,42.47
2024-01-10T11:38:53.301Z,42.25
2024-01-10T11:41:38.902Z,43.30
2024-01-10T11:44:09.866Z,43.47
2024-01-10T11:46:48.634Z,43.52
2024-01-10T11:49:18.667Z,43.47
2024-01-10T11:51:49.295Z,43.03
2024-01-10T11:54:46.028Z,42.51
2024-01-10T11:57:26.196Z,43.63
2024-01-10T11:59:55.825Z,43.76
2024-01-10T12:02:26.357Z,43.33
2024-01-10T12:04:55.403Z,43.34
2024-01-10T12:07:25.288Z,43.32
2024-01-10T12:09:53.521Z,42.89
2024-01-10T12:12:21.586Z,44.15
2024-01-10T12:14:50.461Z,44.21
2024-01-10T12:17:19.995Z,43.15
2024-01-10T12:19:49.688Z,43.22
2024-01-10T12:22:19.119Z,44.20
2024-01-10T12:24:51.609Z,44.03
2024-01-10T12:27:21.421Z,43.93
2024-01-10T12:29:51.981Z,44.61
2024-01-10T12:32:23.821Z,45.50
2024-01-10T12:35:03.385Z,44.84
2024-01-10T12:37:32.382Z,44.57
2024-01-10T12:40:00.260Z,44.93
2024-01-10T12:42:28.288Z,44.82
2024-01-10T12:44:56.093Z,44.84
2024-01-10T12:47:26.234Z,44.83
2024-01-10T12:49:55.358Z,46.28
2024-01-10T12:52:24.309Z,45.28
2024-01-10T12:54:54.211Z,45.98
2024-01-10T12:57:22.572Z,46.40
2024-01-10T12:59:50.893Z,46.70
2024-01-10T13:02:19.407Z,46.43
2024-01-10T13:04:47.437Z,47.15
2024-01-10T13:07:15.737Z,47.34
2024-01-10T13:09:44.265Z,47.60
2024-01-10T13:12:12.164Z,47.23
2024-01-10T13:14:41.459Z,47.46
2024-01-10T13:17:10.085Z,48.01
2024-01-10T13:19:38.478Z,47.70
2024-01-10T13:22:09.265Z,48.17
2024-01-10T13:24:37.539Z,47.91
2024-01-10T13:27:06.170Z,48.00
2024-01-10T13:29:35.908Z,48.18
2024-01-10T13:32:05.994Z,47.72
2024-01-10T13:34:34.041Z,47.71
2024-01-10T13:37:03.965Z,48.67
2024-01-10T13:39:32.177Z,48.71
2024-01-10T13:42:00.239Z,49.11
2024-01-10T13:44:28.213Z,49.25
2024-01-10T13:46:57.542Z,49.12
2024-01-10T13:49:25.385Z,49.00
2024-01-10T13:51:53.385Z,49.10
2024-01-10T13:54:21.115Z,49.11
2024-01-10T13:56:49.134Z,49.23
2024-01-10T13:59:16.895Z,49.86
2024-01-10T14:01:44.676Z,50.09
2024-01-10T14:04:12.538Z,50.03
2024-01-10T14:06:40.317Z,49.99
2024-01-10T14:09:11.201Z,50.18
2024-01-10T14:11:39.085Z,49.91
2024-01-10T14:14:07.154Z,50.00
2024-01-10T14:16:34.945Z,50.22
2024-01-10T14:19:03.197Z,50.42
2024-01-10T14:21:32.821Z,50.58
2024-01-10T14:24:00.788Z,50.91
2024-01-10T14:26:28.835Z,51.34
2024-01-10T14:28:57.965Z,51.59
2024-01-10T14:31:33.960Z,51.85
2024-01-10T14:34:12.056Z,51.55
2024-01-10T14:36:40.051Z,51.38
2024-01-10T14:39:13.850Z,51.45
2024-01-10T14:41:41.987Z,51.81
2024-01-10T14:44:10.342Z,52.47
2024-01-10T14:46:39.570Z,52.93
2024-01-10T14:49:07.455Z,53.27
2024-01-10T14:51:35.448Z,53.55
2024-01-10T14:54:04.749Z,53.83
2024-01-10T14:56:32.871Z,53.47
2024-01-10T14:59:00.705Z,53.26
2024-01-10T15:01:28.627Z,53.24
2024-01-10T15:03:57.022Z,53.72
2024-01-10T15:06:24.909Z,61.01
2024-01-10T15:08:52.727Z,62.58
2024-01-10T15:11:22.312Z,54.42
2024-01-10T15:13:50.435Z,50.05
2024-01-10T15:16:18.308Z,46.72
2024-01-10T15:18:46.382Z,42.09
2024-01-10T15:21:14.276Z,36.89
2024-01-10T15:23:43.289Z,36.67
2024-01-10T15:26:18.003Z,37.96
2024-01-10T15:28:46.317Z,39.46
2024-01-10T15:31:19.563Z,40.64
2024-01-10T15:33:47.616Z,41.52
2024-01-10T15:36:16.411Z,42.40
2024-01-10T15:38:44.640Z,43.42
2024-01-10T15:41:12.854Z,44.22
2024-01-10T15:43:41.988Z,44.86
2024-01-10T15:46:09.799Z,45.23
2024-01-10T15:48:37.739Z,45.80
2024-01-10T15:51:05.935Z,45.89
2024-01-10T15:53:35.156Z,46.18
2024-01-10T15:56:04.357Z,46.55
2024-01-10T15:58:33.827Z,47.05
2024-01-10T16:01:01.600Z,48.04
2024-01-10T16:03:29.363Z,49.50
2024-01-10T16:05:57.933Z,55.91
2024-01-10T16:08:25.968Z,59.02
2024-01-10T16:10:53.844Z,52.43
2024-01-10T16:13:21.621Z,47.43
2024-01-10T16:15:54.412Z,45.06
2024-01-10T16:18:23.360Z,43.43
2024-01-10T16:20:51.263Z,42.41
2024-01-10T16:23:19.097Z,42.26
2024-01-10T16:25:47.110Z,40.37
2024-01-10T16:28:15.601Z,37.78
2024-01-10T16:30:43.316Z,35.24
2024-01-10T16:33:11.214Z,35.72
2024-01-10T16:35:38.958Z,36.64
2024-01-10T16:38:06.874Z,38.21
2024-01-10T16:40:34.600Z,39.12
2024-01-10T16:43:02.443Z,39.63
2024-01-10T16:45:33.149Z,41.63
2024-01-10T16:48:01.198Z,42.97
2024-01-10T16:50:31.928Z,43.84
2024-01-10T16:53:00.083Z,44.07
2024-01-10T16:55:27.940Z,44.81
2024-01-10T16:57:55.938Z,45.82
2024-01-10T17:00:23.650Z,45.98
2024-01-10T17:02:51.442Z,46.18
2024-01-10T17:05:20.446Z,47.03
2024-01-10T17:07:48.411Z,48.15
2024-01-10T17:10:16.414Z,51.12
2024-01-10T17:12:44.294Z,56.77
2024-01-10T17:15:12.105Z,55.77
2024-01-10T17:17:40.857Z,51.19
2024-01-10T17:20:11.873Z,48.15
2024-01-10T17:22:40.439Z,43.96
2024-01-10T17:25:09.888Z,42.24
2024-01-10T17:27:38.508Z,41.45
2024-01-10T17:30:07.619Z,41.73
2024-01-10T17:32:35.563Z,39.89
2024-01-10T17:35:04.007Z,35.59
2024-01-10T17:37:32.020Z,35.30
2024-01-10T17:39:59.940Z,36.41
2024-01-10T17:42:28.846Z,37.93
2024-01-10T17:44:56.710Z,38.93
2024-01-10T17:47:25.574Z,40.34
2024-01-10T17:49:54.252Z,41.99
2024-01-10T17:55:09.783Z,44.69
2024-01-10T17:57:37.501Z,45.71
2024-01-10T18:00:10.769Z,45.79
2024-01-10T18:02:41.512Z,47.18
2024-01-10T18:05:09.655Z,48.99
2024-01-10T18:07:37.438Z,56.55
2024-01-10T18:10:05.919Z,56.90
2024-01-10T18:12:33.822Z,53.78
2024-01-10T18:15:02.441Z,47.79
2024-01-10T18:17:30.383Z,45.31
2024-01-10T18:19:58.400Z,43.12
2024-01-10T18:22:26.278Z,38.17
2024-01-10T18:24:54.636Z,36.60
2024-01-10T18:27:22.368Z,37.09
2024-01-10T18:29:50.070Z,38.33
2024-01-10T18:32:17.941Z,39.61
2024-01-10T18:34:45.913Z,41.51
2024-01-10T18:37:13.668Z,42.75
2024-01-10T18:39:41.454Z,44.27
2024-01-10T18:42:09.592Z,45.45
2024-01-10T18:44:37.415Z,46.44
2024-01-10T18:47:09.810Z,47.41
2024-01-10T18:49:37.543Z,48.48
2024-01-10T18:52:05.997Z,51.76
2024-01-10T18:54:33.690Z,52.58
2024-01-10T18:57:01.386Z,53.50
2024-01-10T18:59:29.313Z,54.34
2024-01-10T19:01:57.571Z,55.87
2024-01-10T19:04:25.666Z,59.03
2024-01-10T19:06:55.455Z,52.79
2024-01-10T19:09:23.515Z,48.32
2024-01-10T19:11:51.876Z,45.06
2024-01-10T19:14:21.520Z,41.28
2024-01-10T19:16:50.193Z,41.06
2024-01-10T19:19:17.994Z,37.21
2024-01-10T19:21:45.853Z,37.56
2024-01-10T19:24:13.683Z,39.01
2024-01-10T19:26:41.548Z,38.87
2024-01-10T19:29:09.565Z,40.51
2024-01-10T19:31:37.690Z,41.24
2024-01-10T19:34:05.890Z,43.18
2024-01-10T19:36:33.953Z,44.24
2024-01-10T19:39:01.993Z,44.79
2024-01-10T19:41:29.878Z,45.62
2024-01-10T19:43:57.857Z,47.27
2024-01-10T19:46:25.714Z,55.08
2024-01-10T19:48:53.690Z,58.72
2024-01-10T19:51:22.035Z,54.54
2024-01-10T19:53:50.445Z,51.32
2024-01-10T19:56:19.314Z,48.02
2024-01-10T19:58:47.222Z,45.89
2024-01-10T20:01:14.974Z,44.09
2024-01-10T20:03:42.822Z,41.84
2024-01-10T20:06:10.744Z,39.75
2024-01-10T20:08:38.662Z,39.08
2024-01-10T20:11:06.824Z,39.20
2024-01-10T20:13:34.632Z,38.77
2024-01-10T20:16:04.505Z,39.23
2024-01-10T20:18:32.739Z,39.85
2024-01-10T20:21:03.085Z,39.58
2024-01-10T20:23:30.794Z,39.62
2024-01-10T20:25:59.210Z,38.83
2024-01-10T20:28:27.321Z,38.54
2024-01-10T20:30:55.322Z,39.77
2024-01-10T20:33:23.419Z,39.19
2024-01-10T20:35:52.117Z,39.03
2024-01-10T20:38:20.043Z,39.38
2024-01-10T20:40:47.861Z,39.58
2024-01-10T20:43:15.659Z,39.68
2024-01-10T20:45:43.577Z,39.93
2024-01-10T20:48:11.560Z,39.95
2024-01-10T20:50:40.012Z,40.26
2024-01-10T20:53:07.942Z,40.17
2024-01-10T20:55:35.825Z,40.26
2024-01-10T20:58:03.772Z,40.23
2024-01-10T21:00:34.505Z,40.30
2024-01-10T21:03:04.106Z,40.55
2024-01-10T21:05:32.125Z,40.78
2024-01-10T21:07:59.978Z,40.85
2024-01-10T21:10:27.921Z,40.74
2024-01-10T21:12:55.700Z,40.90
2024-01-10T21:15:23.518Z,40.88
2024-01-10T21:17:51.549Z,41.00
2024-01-10T21:20:19.615Z,41.07
2024-01-10T21:22:47.366Z,41.05
2024-01-10T21:25:15.357Z,41.01
2024-01-10T21:27:43.206Z,41.03
2024-01-10T21:30:12.136Z,41.16
2024-01-10T21:32:41.393Z,41.46
2024-01-10T21:35:09.671Z,41.83
2024-01-10T21:37:38.844Z,41.73
2024-01-10T21:40:07.511Z,41.41
2024-01-10T21:42:35.344Z,41.40
2024-01-10T21:45:03.393Z,41.42
2024-01-10T21:47:33.871Z,41.41
2024-01-10T21:50:01.894Z,41.65
2024-01-10T21:52:31.520Z,41.79
2024-01-10T21:54:59.648Z,41.72
2024-01-10T21:57:27.591Z,41.62
2024-01-10T21:59:55.434Z,41.75
2024-01-10T22:02:23.814Z,42.23
2024-01-10T22:04:51.643Z,41.97
2024-01-10T22:07:20.141Z,41.66
2024-01-10T22:09:48.914Z,41.66
2024-01-10T22:12:17.336Z,41.42
2024-01-10T22:14:45.258Z,41.31
2024-01-10T22:17:13.152Z,41.45
2024-01-10T22:19:40.919Z,41.52
2024-01-10T22:22:10.071Z,41.59
2024-01-10T22:24:38.472Z,41.71
2024-01-10T22:27:06.144Z,41.86
2024-01-10T22:29:34.184Z,41.94
2024-01-10T22:32:02.172Z,42.07
2024-01-10T22:34:30.031Z,42.08
2024-01-10T22:36:58.010Z,42.11
2024-01-10T22:39:26.211Z,42.17
2024-01-10T22:41:53.939Z,42.14
2024-01-10T22:44:22.049Z,42.31
2024-01-10T22:46:49.754Z,42.15
2024-01-10T22:49:19.141Z,42.15
2024-01-10T22:51:47.265Z,42.23
2024-01-10T22:54:17.933Z,42.23
2024-01-10T22:56:45.729Z,42.29
2024-01-10T22:59:13.565Z,42.41
2024-01-10T23:01:41.344Z,42.48
2024-01-10T23:04:09.261Z,42.42
2024-01-10T23:06:37.687Z,42.47
2024-01-10T23:09:05.980Z,42.40
2024-01-10T23:11:34.720Z,42.26
2024-01-10T23:14:02.524Z,42.46
2024-01-10T23:16:30.247Z,42.61
2024-01-10T23:18:58.276Z,42.65
2024-01-10T23:21:26.189Z,42.67
2024-01-10T23:23:53.948Z,42.74
2024-01-10T23:26:21.707Z,42.86
2024-01-10T23:28:49.595Z,42.96
2024-01-10T23:31:20.710Z,43.27
2024-01-10T23:33:48.797Z,43.39
2024-01-10T23:36:16.681Z,43.44
2024-01-10T23:38:44.580Z,43.48
2024-01-10T23:41:15.174Z,43.57
2024-01-10T23:43:43.168Z,43.43
2024-01-10T23:46:10.890Z,43.76
2024-01-10T23:48:38.649Z,43.97
2024-01-10T23:51:06.485Z,44.00
2024-01-10T23:53:34.278Z,44.00
2024-01-10T23:56:02.114Z,43.95
2024-01-10T23:58:29.865Z,44.03
